sensor_id;sensor_type;location;lat;lon;timestamp;P1;durP1;ratioP1;P2;durP2;ratioP2
35126;SDS011;21300;52.006;5.798;2022-09-28T00:03:43;11.80;;;9.05;;
35126;SDS011;21300;52.006;5.798;2022-09-28T00:06:11;12.75;;;9.15;;
35126;SDS011;21300;52.006;5.798;2022-09-28T00:08:38;10.65;;;8.68;;
35126;SDS011;21300;52.006;5.798;2022-09-28T00:11:05;12.73;;;9.02;;
35126;SDS011;21300;52.006;5.798;2022-09-28T00:13:32;11.07;;;9.23;;
35126;SDS011;21300;52.006;5.798;2022-09-28T00:16:09;11.93;;;8.80;;
35126;SDS011;21300;52.006;5.798;2022-09-28T00:18:37;13.77;;;9.23;;
35126;SDS011;21300;52.006;5.798;2022-09-28T00:21:03;12.85;;;9.38;;
35126;SDS011;21300;52.006;5.798;2022-09-28T00:30:16;12.25;;;8.90;;
35126;SDS011;21300;52.006;5.798;2022-09-28T00:46:11;13.40;;;9.02;;
35126;SDS011;21300;52.006;5.798;2022-09-28T00:48:46;10.63;;;8.43;;
35126;SDS011;21300;52.006;5.798;2022-09-28T00:58:06;10.95;;;7.95;;
35126;SDS011;21300;52.006;5.798;2022-09-28T01:00:36;12.32;;;8.30;;
35126;SDS011;21300;52.006;5.798;2022-09-28T01:03:04;12.65;;;7.30;;
35126;SDS011;21300;52.006;5.798;2022-09-28T01:05:33;12.40;;;8.32;;
35126;SDS011;21300;52.006;5.798;2022-09-28T01:08:00;9.45;;;6.72;;
35126;SDS011;21300;52.006;5.798;2022-09-28T01:10:28;12.18;;;6.78;;
35126;SDS011;21300;52.006;5.798;2022-09-28T01:12:55;11.05;;;6.78;;
35126;SDS011;21300;52.006;5.798;2022-09-28T01:15:21;9.93;;;6.90;;
35126;SDS011;21300;52.006;5.798;2022-09-28T01:18:02;11.02;;;7.05;;
35126;SDS011;21300;52.006;5.798;2022-09-28T01:20:59;10.07;;;6.97;;
35126;SDS011;21300;52.006;5.798;2022-09-28T01:28:52;8.38;;;7.05;;
35126;SDS011;21300;52.006;5.798;2022-09-28T01:31:29;11.43;;;7.03;;
35126;SDS011;21300;52.006;5.798;2022-09-28T01:33:59;8.20;;;6.60;;
35126;SDS011;21300;52.006;5.798;2022-09-28T01:36:40;9.65;;;7.15;;
35126;SDS011;21300;52.006;5.798;2022-09-28T01:39:13;9.30;;;7.38;;
35126;SDS011;21300;52.006;5.798;2022-09-28T01:41:42;11.30;;;6.97;;
35126;SDS011;21300;52.006;5.798;2022-09-28T01:44:11;9.77;;;7.22;;
35126;SDS011;21300;52.006;5.798;2022-09-28T01:46:41;9.63;;;7.45;;
35126;SDS011;21300;52.006;5.798;2022-09-28T01:49:16;9.63;;;7.15;;
35126;SDS011;21300;52.006;5.798;2022-09-28T01:55:27;8.95;;;6.68;;
35126;SDS011;21300;52.006;5.798;2022-09-28T01:58:21;9.02;;;6.93;;
35126;SDS011;21300;52.006;5.798;2022-09-28T02:00:55;10.85;;;7.10;;
35126;SDS011;21300;52.006;5.798;2022-09-28T02:03:34;9.85;;;6.93;;
35126;SDS011;21300;52.006;5.798;2022-09-28T02:06:25;11.23;;;6.68;;
35126;SDS011;21300;52.006;5.798;2022-09-28T02:09:04;10.23;;;6.97;;
35126;SDS011;21300;52.006;5.798;2022-09-28T02:11:35;9.13;;;7.13;;
35126;SDS011;21300;52.006;5.798;2022-09-28T02:14:09;12.15;;;6.90;;
35126;SDS011;21300;52.006;5.798;2022-09-28T02:16:40;10.40;;;6.97;;
35126;SDS011;21300;52.006;5.798;2022-09-28T02:19:21;9.05;;;6.88;;
35126;SDS011;21300;52.006;5.798;2022-09-28T02:21:54;9.07;;;7.32;;
35126;SDS011;21300;52.006;5.798;2022-09-28T02:26:58;10.13;;;7.03;;
35126;SDS011;21300;52.006;5.798;2022-09-28T02:29:27;11.38;;;7.38;;
35126;SDS011;21300;52.006;5.798;2022-09-28T02:31:53;10.82;;;6.78;;
35126;SDS011;21300;52.006;5.798;2022-09-28T02:34:37;11.80;;;7.68;;
35126;SDS011;21300;52.006;5.798;2022-09-28T02:37:03;8.68;;;7.20;;
35126;SDS011;21300;52.006;5.798;2022-09-28T02:39:47;10.90;;;7.77;;
35126;SDS011;21300;52.006;5.798;2022-09-28T02:42:19;13.68;;;7.90;;
35126;SDS011;21300;52.006;5.798;2022-09-28T02:45:06;12.63;;;8.02;;
35126;SDS011;21300;52.006;5.798;2022-09-28T02:55:51;11.80;;;8.32;;
35126;SDS011;21300;52.006;5.798;2022-09-28T02:58:56;11.55;;;8.43;;
35126;SDS011;21300;52.006;5.798;2022-09-28T03:01:29;13.13;;;8.73;;
35126;SDS011;21300;52.006;5.798;2022-09-28T03:07:00;11.65;;;8.32;;
35126;SDS011;21300;52.006;5.798;2022-09-28T03:09:48;11.15;;;8.57;;
35126;SDS011;21300;52.006;5.798;2022-09-28T03:12:23;11.43;;;8.55;;
35126;SDS011;21300;52.006;5.798;2022-09-28T03:15:06;11.90;;;8.25;;
35126;SDS011;21300;52.006;5.798;2022-09-28T03:17:35;12.93;;;8.88;;
35126;SDS011;21300;52.006;5.798;2022-09-28T03:20:01;13.15;;;8.43;;
35126;SDS011;21300;52.006;5.798;2022-09-28T03:22:28;14.85;;;8.90;;
35126;SDS011;21300;52.006;5.798;2022-09-28T03:24:54;11.40;;;8.57;;
35126;SDS011;21300;52.006;5.798;2022-09-28T03:27:19;12.98;;;7.93;;
35126;SDS011;21300;52.006;5.798;2022-09-28T03:29:45;11.60;;;8.45;;
35126;SDS011;21300;52.006;5.798;2022-09-28T03:32:11;10.23;;;7.50;;
35126;SDS011;21300;52.006;5.798;2022-09-28T03:34:37;11.30;;;8.18;;
35126;SDS011;21300;52.006;5.798;2022-09-28T03:37:02;15.00;;;8.43;;
35126;SDS011;21300;52.006;5.798;2022-09-28T03:39:28;11.48;;;8.13;;
35126;SDS011;21300;52.006;5.798;2022-09-28T03:41:53;11.77;;;7.95;;
35126;SDS011;21300;52.006;5.798;2022-09-28T03:44:19;12.40;;;7.85;;
35126;SDS011;21300;52.006;5.798;2022-09-28T03:46:45;11.00;;;7.70;;
35126;SDS011;21300;52.006;5.798;2022-09-28T03:49:11;10.20;;;7.03;;
35126;SDS011;21300;52.006;5.798;2022-09-28T03:51:36;9.80;;;7.20;;
35126;SDS011;21300;52.006;5.798;2022-09-28T03:54:02;9.68;;;7.15;;
35126;SDS011;21300;52.006;5.798;2022-09-28T03:56:28;15.95;;;6.88;;
35126;SDS011;21300;52.006;5.798;2022-09-28T03:58:53;9.30;;;6.47;;
35126;SDS011;21300;52.006;5.798;2022-09-28T04:01:19;12.85;;;7.45;;
35126;SDS011;21300;52.006;5.798;2022-09-28T04:03:44;9.95;;;7.13;;
35126;SDS011;21300;52.006;5.798;2022-09-28T04:06:11;9.25;;;6.40;;
35126;SDS011;21300;52.006;5.798;2022-09-28T04:08:37;7.57;;;5.47;;
35126;SDS011;21300;52.006;5.798;2022-09-28T04:11:03;8.07;;;6.65;;
35126;SDS011;21300;52.006;5.798;2022-09-28T04:13:29;10.20;;;6.88;;
35126;SDS011;21300;52.006;5.798;2022-09-28T04:15:56;8.52;;;6.78;;
35126;SDS011;21300;52.006;5.798;2022-09-28T04:18:23;8.20;;;6.00;;
35126;SDS011;21300;52.006;5.798;2022-09-28T04:20:59;7.18;;;5.97;;
35126;SDS011;21300;52.006;5.798;2022-09-28T04:23:27;7.30;;;6.05;;
35126;SDS011;21300;52.006;5.798;2022-09-28T04:25:53;8.23;;;6.45;;
35126;SDS011;21300;52.006;5.798;2022-09-28T04:28:19;9.07;;;6.72;;
35126;SDS011;21300;52.006;5.798;2022-09-28T04:31:06;8.82;;;6.28;;
35126;SDS011;21300;52.006;5.798;2022-09-28T04:36:21;8.35;;;6.00;;
35126;SDS011;21300;52.006;5.798;2022-09-28T04:38:49;8.50;;;5.43;;
35126;SDS011;21300;52.006;5.798;2022-09-28T04:41:18;7.22;;;5.60;;
35126;SDS011;21300;52.006;5.798;2022-09-28T04:43:47;5.18;;;4.57;;
35126;SDS011;21300;52.006;5.798;2022-09-28T04:46:13;6.03;;;4.97;;
35126;SDS011;21300;52.006;5.798;2022-09-28T04:48:38;6.93;;;4.85;;
35126;SDS011;21300;52.006;5.798;2022-09-28T04:51:04;9.60;;;5.40;;
35126;SDS011;21300;52.006;5.798;2022-09-28T04:53:30;6.45;;;4.93;;
35126;SDS011;21300;52.006;5.798;2022-09-28T04:55:57;7.15;;;4.95;;
35126;SDS011;21300;52.006;5.798;2022-09-28T04:58:25;7.15;;;5.07;;
35126;SDS011;21300;52.006;5.798;2022-09-28T05:00:51;8.43;;;5.35;;
35126;SDS011;21300;52.006;5.798;2022-09-28T05:03:18;7.05;;;5.13;;
35126;SDS011;21300;52.006;5.798;2022-09-28T05:05:45;7.57;;;5.47;;
35126;SDS011;21300;52.006;5.798;2022-09-28T05:08:11;11.15;;;5.03;;
35126;SDS011;21300;52.006;5.798;2022-09-28T05:10:37;6.95;;;4.78;;
35126;SDS011;21300;52.006;5.798;2022-09-28T05:13:06;6.15;;;4.03;;
35126;SDS011;21300;52.006;5.798;2022-09-28T05:15:33;7.25;;;3.85;;
35126;SDS011;21300;52.006;5.798;2022-09-28T05:17:59;6.88;;;4.60;;
35126;SDS011;21300;52.006;5.798;2022-09-28T05:20:25;7.88;;;5.10;;
35126;SDS011;21300;52.006;5.798;2022-09-28T05:22:51;8.75;;;4.82;;
35126;SDS011;21300;52.006;5.798;2022-09-28T05:25:16;6.35;;;4.10;;
35126;SDS011;21300;52.006;5.798;2022-09-28T05:27:42;5.00;;;4.00;;
35126;SDS011;21300;52.006;5.798;2022-09-28T05:30:08;6.65;;;4.72;;
35126;SDS011;21300;52.006;5.798;2022-09-28T05:32:41;6.45;;;4.63;;
35126;SDS011;21300;52.006;5.798;2022-09-28T05:35:08;6.25;;;4.82;;
35126;SDS011;21300;52.006;5.798;2022-09-28T05:37:37;5.47;;;4.57;;
35126;SDS011;21300;52.006;5.798;2022-09-28T05:40:03;3.45;;;2.80;;
35126;SDS011;21300;52.006;5.798;2022-09-28T05:42:30;5.60;;;3.90;;
35126;SDS011;21300;52.006;5.798;2022-09-28T05:44:55;6.30;;;4.60;;
35126;SDS011;21300;52.006;5.798;2022-09-28T05:47:27;8.93;;;4.63;;
35126;SDS011;21300;52.006;5.798;2022-09-28T05:49:53;5.15;;;3.65;;
35126;SDS011;21300;52.006;5.798;2022-09-28T05:52:19;5.68;;;3.70;;
35126;SDS011;21300;52.006;5.798;2022-09-28T05:54:45;5.30;;;4.00;;
35126;SDS011;21300;52.006;5.798;2022-09-28T05:57:11;7.47;;;5.07;;
35126;SDS011;21300;52.006;5.798;2022-09-28T05:59:37;4.97;;;4.28;;
35126;SDS011;21300;52.006;5.798;2022-09-28T06:02:03;5.03;;;3.78;;
35126;SDS011;21300;52.006;5.798;2022-09-28T06:04:29;8.48;;;4.63;;
35126;SDS011;21300;52.006;5.798;2022-09-28T06:06:55;7.60;;;4.00;;
35126;SDS011;21300;52.006;5.798;2022-09-28T06:09:21;4.85;;;4.07;;
35126;SDS011;21300;52.006;5.798;2022-09-28T06:11:48;9.45;;;4.43;;
35126;SDS011;21300;52.006;5.798;2022-09-28T06:14:14;5.85;;;4.38;;
35126;SDS011;21300;52.006;5.798;2022-09-28T06:16:39;7.18;;;4.30;;
35126;SDS011;21300;52.006;5.798;2022-09-28T06:19:06;6.68;;;5.10;;
35126;SDS011;21300;52.006;5.798;2022-09-28T06:21:32;5.60;;;4.55;;
35126;SDS011;21300;52.006;5.798;2022-09-28T06:23:58;5.20;;;4.47;;
35126;SDS011;21300;52.006;5.798;2022-09-28T06:26:23;5.80;;;4.18;;
35126;SDS011;21300;52.006;5.798;2022-09-28T06:28:49;6.63;;;4.68;;
35126;SDS011;21300;52.006;5.798;2022-09-28T06:31:14;6.38;;;3.92;;
35126;SDS011;21300;52.006;5.798;2022-09-28T06:33:41;6.38;;;4.40;;
35126;SDS011;21300;52.006;5.798;2022-09-28T06:36:07;8.93;;;4.82;;
35126;SDS011;21300;52.006;5.798;2022-09-28T06:38:34;9.95;;;5.03;;
35126;SDS011;21300;52.006;5.798;2022-09-28T06:40:59;6.35;;;4.57;;
35126;SDS011;21300;52.006;5.798;2022-09-28T06:43:25;10.13;;;5.38;;
35126;SDS011;21300;52.006;5.798;2022-09-28T06:45:52;7.40;;;4.85;;
35126;SDS011;21300;52.006;5.798;2022-09-28T06:48:18;8.00;;;4.43;;
35126;SDS011;21300;52.006;5.798;2022-09-28T06:50:44;8.85;;;4.93;;
35126;SDS011;21300;52.006;5.798;2022-09-28T06:53:11;6.43;;;4.55;;
35126;SDS011;21300;52.006;5.798;2022-09-28T06:55:38;6.68;;;4.72;;
35126;SDS011;21300;52.006;5.798;2022-09-28T06:58:10;6.18;;;4.85;;
35126;SDS011;21300;52.006;5.798;2022-09-28T07:00:38;6.00;;;4.43;;
35126;SDS011;21300;52.006;5.798;2022-09-28T07:03:10;5.80;;;5.03;;
35126;SDS011;21300;52.006;5.798;2022-09-28T07:05:39;10.32;;;4.47;;
35126;SDS011;21300;52.006;5.798;2022-09-28T07:08:06;5.72;;;4.07;;
35126;SDS011;21300;52.006;5.798;2022-09-28T07:10:32;5.75;;;4.15;;
35126;SDS011;21300;52.006;5.798;2022-09-28T07:12:59;4.68;;;3.60;;
35126;SDS011;21300;52.006;5.798;2022-09-28T07:15:30;5.65;;;4.00;;
35126;SDS011;21300;52.006;5.798;2022-09-28T07:17:59;5.13;;;3.22;;
35126;SDS011;21300;52.006;5.798;2022-09-28T07:20:26;5.43;;;3.67;;
35126;SDS011;21300;52.006;5.798;2022-09-28T07:22:56;6.38;;;3.58;;
35126;SDS011;21300;52.006;5.798;2022-09-28T07:25:26;4.55;;;3.35;;
35126;SDS011;21300;52.006;5.798;2022-09-28T07:27:57;3.53;;;2.67;;
35126;SDS011;21300;52.006;5.798;2022-09-28T07:30:24;3.67;;;3.00;;
35126;SDS011;21300;52.006;5.798;2022-09-28T07:32:51;5.35;;;2.92;;
35126;SDS011;21300;52.006;5.798;2022-09-28T07:35:17;3.58;;;2.70;;
35126;SDS011;21300;52.006;5.798;2022-09-28T07:37:43;3.17;;;2.63;;
35126;SDS011;21300;52.006;5.798;2022-09-28T07:40:09;3.55;;;2.85;;
35126;SDS011;21300;52.006;5.798;2022-09-28T07:42:53;3.83;;;2.80;;
35126;SDS011;21300;52.006;5.798;2022-09-28T07:45:19;4.07;;;2.60;;
35126;SDS011;21300;52.006;5.798;2022-09-28T07:47:47;3.60;;;2.65;;
35126;SDS011;21300;52.006;5.798;2022-09-28T07:50:13;3.05;;;2.17;;
35126;SDS011;21300;52.006;5.798;2022-09-28T07:52:39;3.40;;;2.03;;
35126;SDS011;21300;52.006;5.798;2022-09-28T07:55:05;2.92;;;2.30;;
35126;SDS011;21300;52.006;5.798;2022-09-28T07:57:31;2.22;;;1.70;;
35126;SDS011;21300;52.006;5.798;2022-09-28T07:59:57;2.53;;;2.05;;
35126;SDS011;21300;52.006;5.798;2022-09-28T08:02:24;2.90;;;1.75;;
35126;SDS011;21300;52.006;5.798;2022-09-28T08:04:50;4.13;;;2.05;;
35126;SDS011;21300;52.006;5.798;2022-09-28T08:07:16;3.60;;;2.22;;
35126;SDS011;21300;52.006;5.798;2022-09-28T08:09:46;3.85;;;2.03;;
35126;SDS011;21300;52.006;5.798;2022-09-28T08:12:12;3.55;;;1.95;;
35126;SDS011;21300;52.006;5.798;2022-09-28T08:14:38;3.55;;;1.70;;
35126;SDS011;21300;52.006;5.798;2022-09-28T08:17:05;3.58;;;1.60;;
35126;SDS011;21300;52.006;5.798;2022-09-28T08:19:31;4.57;;;1.75;;
35126;SDS011;21300;52.006;5.798;2022-09-28T08:22:16;3.42;;;2.13;;
35126;SDS011;21300;52.006;5.798;2022-09-28T08:24:43;5.28;;;1.75;;
35126;SDS011;21300;52.006;5.798;2022-09-28T08:27:09;2.90;;;1.75;;
35126;SDS011;21300;52.006;5.798;2022-09-28T08:29:54;5.40;;;2.08;;
35126;SDS011;21300;52.006;5.798;2022-09-28T08:32:20;3.30;;;2.08;;
35126;SDS011;21300;52.006;5.798;2022-09-28T08:34:45;3.08;;;2.13;;
35126;SDS011;21300;52.006;5.798;2022-09-28T08:37:11;5.72;;;2.10;;
35126;SDS011;21300;52.006;5.798;2022-09-28T08:39:37;6.15;;;2.40;;
35126;SDS011;21300;52.006;5.798;2022-09-28T08:45:05;5.65;;;3.17;;
35126;SDS011;21300;52.006;5.798;2022-09-28T08:47:44;4.53;;;2.55;;
35126;SDS011;21300;52.006;5.798;2022-09-28T08:50:45;4.15;;;2.13;;
35126;SDS011;21300;52.006;5.798;2022-09-28T08:56:09;5.70;;;2.22;;
35126;SDS011;21300;52.006;5.798;2022-09-28T08:58:43;7.47;;;3.35;;
35126;SDS011;21300;52.006;5.798;2022-09-28T09:01:12;9.75;;;4.03;;
35126;SDS011;21300;52.006;5.798;2022-09-28T09:03:42;6.50;;;2.38;;
35126;SDS011;21300;52.006;5.798;2022-09-28T09:12:18;8.13;;;3.33;;
35126;SDS011;21300;52.006;5.798;2022-09-28T09:23:00;2.92;;;1.60;;
35126;SDS011;21300;52.006;5.798;2022-09-28T09:44:18;3.63;;;0.90;;
35126;SDS011;21300;52.006;5.798;2022-09-28T09:47:12;3.53;;;0.80;;
35126;SDS011;21300;52.006;5.798;2022-09-28T09:50:04;2.58;;;1.00;;
35126;SDS011;21300;52.006;5.798;2022-09-28T09:58:08;2.80;;;0.90;;
35126;SDS011;21300;52.006;5.798;2022-09-28T10:00:46;2.50;;;0.93;;
35126;SDS011;21300;52.006;5.798;2022-09-28T10:03:18;2.30;;;1.00;;
35126;SDS011;21300;52.006;5.798;2022-09-28T10:05:53;3.13;;;0.98;;
35126;SDS011;21300;52.006;5.798;2022-09-28T10:08:24;2.07;;;0.80;;
35126;SDS011;21300;52.006;5.798;2022-09-28T10:10:53;3.10;;;0.85;;
35126;SDS011;21300;52.006;5.798;2022-09-28T10:13:31;2.22;;;0.80;;
35126;SDS011;21300;52.006;5.798;2022-09-28T10:15:58;1.83;;;0.73;;
35126;SDS011;21300;52.006;5.798;2022-09-28T10:18:24;1.13;;;0.63;;
35126;SDS011;21300;52.006;5.798;2022-09-28T10:20:51;1.40;;;0.52;;
35126;SDS011;21300;52.006;5.798;2022-09-28T10:23:24;1.58;;;0.90;;
35126;SDS011;21300;52.006;5.798;2022-09-28T10:25:55;5.78;;;0.55;;
35126;SDS011;21300;52.006;5.798;2022-09-28T10:28:31;1.13;;;0.60;;
35126;SDS011;21300;52.006;5.798;2022-09-28T10:33:58;0.75;;;0.50;;
35126;SDS011;21300;52.006;5.798;2022-09-28T10:36:23;0.65;;;0.40;;
35126;SDS011;21300;52.006;5.798;2022-09-28T10:38:50;1.13;;;0.43;;
35126;SDS011;21300;52.006;5.798;2022-09-28T10:41:16;1.95;;;0.60;;
35126;SDS011;21300;52.006;5.798;2022-09-28T10:43:52;0.80;;;0.50;;
35126;SDS011;21300;52.006;5.798;2022-09-28T10:46:30;2.45;;;0.60;;
35126;SDS011;21300;52.006;5.798;2022-09-28T10:49:06;2.83;;;0.60;;
35126;SDS011;21300;52.006;5.798;2022-09-28T10:54:15;2.70;;;0.50;;
35126;SDS011;21300;52.006;5.798;2022-09-28T10:56:41;2.05;;;0.60;;
35126;SDS011;21300;52.006;5.798;2022-09-28T10:59:23;1.90;;;0.50;;
35126;SDS011;21300;52.006;5.798;2022-09-28T11:01:59;1.52;;;0.50;;
35126;SDS011;21300;52.006;5.798;2022-09-28T11:04:28;1.40;;;0.45;;
35126;SDS011;21300;52.006;5.798;2022-09-28T11:06:59;1.38;;;0.40;;
35126;SDS011;21300;52.006;5.798;2022-09-28T11:09:29;0.82;;;0.30;;
35126;SDS011;21300;52.006;5.798;2022-09-28T11:11:57;0.70;;;0.40;;
35126;SDS011;21300;52.006;5.798;2022-09-28T11:20:00;1.73;;;0.70;;
35126;SDS011;21300;52.006;5.798;2022-09-28T11:22:44;3.22;;;0.40;;
35126;SDS011;21300;52.006;5.798;2022-09-28T11:25:20;2.28;;;0.30;;
35126;SDS011;21300;52.006;5.798;2022-09-28T11:32:51;1.58;;;0.45;;
35126;SDS011;21300;52.006;5.798;2022-09-28T11:35:24;2.03;;;0.40;;
35126;SDS011;21300;52.006;5.798;2022-09-28T11:38:01;1.52;;;0.30;;
35126;SDS011;21300;52.006;5.798;2022-09-28T11:40:58;1.70;;;0.50;;
35126;SDS011;21300;52.006;5.798;2022-09-28T11:51:44;3.35;;;0.45;;
35126;SDS011;21300;52.006;5.798;2022-09-28T11:54:23;5.00;;;0.70;;
35126;SDS011;21300;52.006;5.798;2022-09-28T11:57:02;2.20;;;0.52;;
35126;SDS011;21300;52.006;5.798;2022-09-28T11:59:31;1.02;;;0.50;;
35126;SDS011;21300;52.006;5.798;2022-09-28T12:04:33;1.25;;;0.40;;
35126;SDS011;21300;52.006;5.798;2022-09-28T12:09:48;1.90;;;0.30;;
35126;SDS011;21300;52.006;5.798;2022-09-28T12:15:33;4.50;;;0.30;;
35126;SDS011;21300;52.006;5.798;2022-09-28T12:23:53;2.63;;;0.30;;
35126;SDS011;21300;52.006;5.798;2022-09-28T12:26:31;1.45;;;0.40;;
35126;SDS011;21300;52.006;5.798;2022-09-28T12:28:59;1.35;;;0.30;;
35126;SDS011;21300;52.006;5.798;2022-09-28T12:31:36;0.50;;;0.22;;
35126;SDS011;21300;52.006;5.798;2022-09-28T12:34:07;0.75;;;0.30;;
35126;SDS011;21300;52.006;5.798;2022-09-28T12:36:42;1.33;;;0.40;;
35126;SDS011;21300;52.006;5.798;2022-09-28T12:52:03;0.65;;;0.30;;
35126;SDS011;21300;52.006;5.798;2022-09-28T12:54:35;2.95;;;0.50;;
35126;SDS011;21300;52.006;5.798;2022-09-28T12:57:34;0.75;;;0.38;;
35126;SDS011;21300;52.006;5.798;2022-09-28T13:08:32;1.83;;;0.50;;
35126;SDS011;21300;52.006;5.798;2022-09-28T13:25:15;1.33;;;0.50;;
35126;SDS011;21300;52.006;5.798;2022-09-28T13:27:49;1.35;;;0.30;;
35126;SDS011;21300;52.006;5.798;2022-09-28T13:30:19;0.70;;;0.40;;
35126;SDS011;21300;52.006;5.798;2022-09-28T13:32:45;1.58;;;0.40;;
35126;SDS011;21300;52.006;5.798;2022-09-28T13:35:13;2.33;;;0.35;;
35126;SDS011;21300;52.006;5.798;2022-09-28T13:37:41;0.30;;;0.30;;
35126;SDS011;21300;52.006;5.798;2022-09-28T13:40:07;0.63;;;0.30;;
35126;SDS011;21300;52.006;5.798;2022-09-28T13:47:51;3.17;;;0.95;;
35126;SDS011;21300;52.006;5.798;2022-09-28T14:01:42;0.95;;;0.40;;
35126;SDS011;21300;52.006;5.798;2022-09-28T14:14:52;1.85;;;0.45;;
35126;SDS011;21300;52.006;5.798;2022-09-28T14:19:51;1.08;;;0.40;;
35126;SDS011;21300;52.006;5.798;2022-09-28T14:25:35;5.00;;;1.52;;
35126;SDS011;21300;52.006;5.798;2022-09-28T14:30:57;1.55;;;0.80;;
35126;SDS011;21300;52.006;5.798;2022-09-28T14:33:32;4.88;;;0.70;;
35126;SDS011;21300;52.006;5.798;2022-09-28T14:36:06;1.42;;;0.90;;
35126;SDS011;21300;52.006;5.798;2022-09-28T14:39:16;1.13;;;0.63;;
35126;SDS011;21300;52.006;5.798;2022-09-28T14:42:10;1.20;;;0.80;;
35126;SDS011;21300;52.006;5.798;2022-09-28T14:50:11;2.90;;;0.88;;
35126;SDS011;21300;52.006;5.798;2022-09-28T14:52:47;1.23;;;0.60;;
35126;SDS011;21300;52.006;5.798;2022-09-28T14:55:18;1.10;;;0.77;;
35126;SDS011;21300;52.006;5.798;2022-09-28T14:57:54;1.83;;;0.60;;
35126;SDS011;21300;52.006;5.798;2022-09-28T15:00:22;0.70;;;0.40;;
35126;SDS011;21300;52.006;5.798;2022-09-28T15:02:53;1.75;;;0.73;;
35126;SDS011;21300;52.006;5.798;2022-09-28T15:05:34;1.33;;;0.60;;
35126;SDS011;21300;52.006;5.798;2022-09-28T15:08:07;2.40;;;1.20;;
35126;SDS011;21300;52.006;5.798;2022-09-28T15:10:36;6.80;;;1.30;;
35126;SDS011;21300;52.006;5.798;2022-09-28T15:13:19;3.45;;;1.90;;
35126;SDS011;21300;52.006;5.798;2022-09-28T15:15:50;5.40;;;1.85;;
35126;SDS011;21300;52.006;5.798;2022-09-28T15:18:45;3.75;;;2.20;;
35126;SDS011;21300;52.006;5.798;2022-09-28T15:21:15;3.70;;;2.15;;
35126;SDS011;21300;52.006;5.798;2022-09-28T15:23:42;1.23;;;0.95;;
35126;SDS011;21300;52.006;5.798;2022-09-28T15:26:22;2.78;;;0.90;;
35126;SDS011;21300;52.006;5.798;2022-09-28T15:28:51;2.15;;;1.40;;
35126;SDS011;21300;52.006;5.798;2022-09-28T15:31:18;2.05;;;0.98;;
35126;SDS011;21300;52.006;5.798;2022-09-28T15:33:47;1.10;;;0.80;;
35126;SDS011;21300;52.006;5.798;2022-09-28T15:36:38;2.33;;;0.50;;
35126;SDS011;21300;52.006;5.798;2022-09-28T15:39:11;4.47;;;0.80;;
35126;SDS011;21300;52.006;5.798;2022-09-28T15:41:40;6.05;;;0.80;;
35126;SDS011;21300;52.006;5.798;2022-09-28T15:44:27;4.80;;;1.08;;
35126;SDS011;21300;52.006;5.798;2022-09-28T15:49:32;2.90;;;0.82;;
35126;SDS011;21300;52.006;5.798;2022-09-28T15:54:52;2.55;;;0.75;;
35126;SDS011;21300;52.006;5.798;2022-09-28T15:57:37;1.30;;;0.77;;
35126;SDS011;21300;52.006;5.798;2022-09-28T16:00:05;0.93;;;0.70;;
35126;SDS011;21300;52.006;5.798;2022-09-28T16:05:41;1.90;;;1.20;;
35126;SDS011;21300;52.006;5.798;2022-09-28T16:08:13;2.35;;;1.08;;
35126;SDS011;21300;52.006;5.798;2022-09-28T16:10:58;2.75;;;1.25;;
35126;SDS011;21300;52.006;5.798;2022-09-28T16:13:34;1.50;;;1.00;;
35126;SDS011;21300;52.006;5.798;2022-09-28T16:16:22;2.45;;;1.20;;
35126;SDS011;21300;52.006;5.798;2022-09-28T16:18:55;3.00;;;0.88;;
35126;SDS011;21300;52.006;5.798;2022-09-28T16:26:26;1.42;;;0.90;;
35126;SDS011;21300;52.006;5.798;2022-09-28T16:28:57;2.97;;;1.08;;
35126;SDS011;21300;52.006;5.798;2022-09-28T16:36:24;2.58;;;1.00;;
35126;SDS011;21300;52.006;5.798;2022-09-28T16:38:51;3.00;;;1.05;;
35126;SDS011;21300;52.006;5.798;2022-09-28T16:41:19;2.50;;;0.82;;
35126;SDS011;21300;52.006;5.798;2022-09-28T16:43:47;3.38;;;0.90;;
35126;SDS011;21300;52.006;5.798;2022-09-28T16:46:14;2.17;;;0.70;;
35126;SDS011;21300;52.006;5.798;2022-09-28T16:48:42;1.23;;;0.65;;
35126;SDS011;21300;52.006;5.798;2022-09-28T16:51:15;2.38;;;0.82;;
35126;SDS011;21300;52.006;5.798;2022-09-28T16:53:42;1.38;;;0.70;;
35126;SDS011;21300;52.006;5.798;2022-09-28T16:56:26;2.50;;;0.50;;
35126;SDS011;21300;52.006;5.798;2022-09-28T16:58:53;2.75;;;1.38;;
35126;SDS011;21300;52.006;5.798;2022-09-28T17:01:19;3.20;;;1.60;;
35126;SDS011;21300;52.006;5.798;2022-09-28T17:03:45;4.32;;;2.55;;
35126;SDS011;21300;52.006;5.798;2022-09-28T17:06:14;4.40;;;2.13;;
35126;SDS011;21300;52.006;5.798;2022-09-28T17:08:40;4.55;;;2.25;;
35126;SDS011;21300;52.006;5.798;2022-09-28T17:11:07;5.78;;;1.80;;
35126;SDS011;21300;52.006;5.798;2022-09-28T17:13:37;3.25;;;1.95;;
35126;SDS011;21300;52.006;5.798;2022-09-28T17:16:04;3.75;;;1.80;;
35126;SDS011;21300;52.006;5.798;2022-09-28T17:18:34;5.95;;;1.95;;
35126;SDS011;21300;52.006;5.798;2022-09-28T17:21:03;3.67;;;2.08;;
35126;SDS011;21300;52.006;5.798;2022-09-28T17:23:30;4.63;;;2.28;;
35126;SDS011;21300;52.006;5.798;2022-09-28T17:25:57;5.05;;;2.70;;
35126;SDS011;21300;52.006;5.798;2022-09-28T17:28:26;4.35;;;2.30;;
35126;SDS011;21300;52.006;5.798;2022-09-28T17:30:54;4.63;;;2.22;;
35126;SDS011;21300;52.006;5.798;2022-09-28T17:33:20;3.80;;;2.42;;
35126;SDS011;21300;52.006;5.798;2022-09-28T17:35:46;4.00;;;2.45;;
35126;SDS011;21300;52.006;5.798;2022-09-28T17:38:12;4.13;;;2.35;;
35126;SDS011;21300;52.006;5.798;2022-09-28T17:40:39;3.50;;;2.67;;
35126;SDS011;21300;52.006;5.798;2022-09-28T17:43:09;4.80;;;2.92;;
35126;SDS011;21300;52.006;5.798;2022-09-28T17:45:36;4.35;;;2.92;;
35126;SDS011;21300;52.006;5.798;2022-09-28T17:48:21;3.65;;;2.80;;
35126;SDS011;21300;52.006;5.798;2022-09-28T17:50:47;4.55;;;3.17;;
35126;SDS011;21300;52.006;5.798;2022-09-28T17:53:13;5.82;;;2.85;;
35126;SDS011;21300;52.006;5.798;2022-09-28T17:55:39;4.50;;;2.33;;
35126;SDS011;21300;52.006;5.798;2022-09-28T17:58:20;4.60;;;2.50;;
35126;SDS011;21300;52.006;5.798;2022-09-28T18:00:48;4.80;;;2.45;;
35126;SDS011;21300;52.006;5.798;2022-09-28T18:03:16;7.20;;;2.58;;
35126;SDS011;21300;52.006;5.798;2022-09-28T18:05:44;5.40;;;2.67;;
35126;SDS011;21300;52.006;5.798;2022-09-28T18:08:12;5.80;;;2.95;;
35126;SDS011;21300;52.006;5.798;2022-09-28T18:10:40;8.20;;;3.60;;
35126;SDS011;21300;52.006;5.798;2022-09-28T18:15:51;11.77;;;6.85;;
35126;SDS011;21300;52.006;5.798;2022-09-28T18:18:18;10.07;;;5.60;;
35126;SDS011;21300;52.006;5.798;2022-09-28T18:20:44;10.50;;;5.85;;
35126;SDS011;21300;52.006;5.798;2022-09-28T18:23:10;11.00;;;6.03;;
35126;SDS011;21300;52.006;5.798;2022-09-28T18:25:39;10.50;;;6.07;;
35126;SDS011;21300;52.006;5.798;2022-09-28T18:28:07;10.88;;;6.30;;
35126;SDS011;21300;52.006;5.798;2022-09-28T18:30:33;9.82;;;5.78;;
35126;SDS011;21300;52.006;5.798;2022-09-28T18:33:06;8.57;;;5.38;;
35126;SDS011;21300;52.006;5.798;2022-09-28T18:35:32;9.45;;;5.50;;
35126;SDS011;21300;52.006;5.798;2022-09-28T18:37:58;8.90;;;4.70;;
35126;SDS011;21300;52.006;5.798;2022-09-28T18:40:24;6.22;;;4.25;;
35126;SDS011;21300;52.006;5.798;2022-09-28T18:42:50;6.95;;;3.90;;
35126;SDS011;21300;52.006;5.798;2022-09-28T18:45:15;6.65;;;4.28;;
35126;SDS011;21300;52.006;5.798;2022-09-28T18:47:42;9.15;;;4.30;;
35126;SDS011;21300;52.006;5.798;2022-09-28T18:50:09;6.05;;;4.18;;
35126;SDS011;21300;52.006;5.798;2022-09-28T18:52:39;6.15;;;4.90;;
35126;SDS011;21300;52.006;5.798;2022-09-28T18:55:07;8.85;;;4.53;;
35126;SDS011;21300;52.006;5.798;2022-09-28T18:57:33;6.28;;;3.90;;
35126;SDS011;21300;52.006;5.798;2022-09-28T19:00:00;5.80;;;4.10;;
35126;SDS011;21300;52.006;5.798;2022-09-28T19:02:28;6.18;;;4.35;;